sensor_id;sensor_type;location;lat;lon;timestamp;temperature;humidity
30678;DHT22;73746;47.466;8.992;2024-03-06T00:01:54;5.10;99.90
30678;DHT22;73746;47.466;8.992;2024-03-06T00:04:26;5.10;99.90
30678;DHT22;73746;47.466;8.992;2024-03-06T00:06:58;5.20;99.90
30678;DHT22;73746;47.466;8.992;2024-03-06T00:09:30;5.20;99.90
30678;DHT22;73746;47.466;8.992;2024-03-06T00:12:03;5.10;99.90
30678;DHT22;73746;47.466;8.992;2024-03-06T00:14:36;5.10;99.90
30678;DHT22;73746;47.466;8.992;2024-03-06T00:17:08;5.10;99.90
30678;DHT22;73746;47.466;8.992;2024-03-06T00:22:23;5.10;99.90
30678;DHT22;73746;47.466;8.992;2024-03-06T00:24:55;5.10;99.90
30678;DHT22;73746;47.466;8.992;2024-03-06T00:27:27;5.00;99.90
30678;DHT22;73746;47.466;8.992;2024-03-06T00:29:58;5.10;99.90
30678;DHT22;73746;47.466;8.992;2024-03-06T00:32:30;5.00;99.90
30678;DHT22;73746;47.466;8.992;2024-03-06T00:35:03;5.00;99.90
30678;DHT22;73746;47.466;8.992;2024-03-06T00:37:41;5.00;99.90
30678;DHT22;73746;47.466;8.992;2024-03-06T00:40:14;4.90;99.90
30678;DHT22;73746;47.466;8.992;2024-03-06T00:42:46;4.90;99.90
30678;DHT22;73746;47.466;8.992;2024-03-06T00:45:18;4.90;99.90
30678;DHT22;73746;47.466;8.992;2024-03-06T00:47:49;4.90;99.90
30678;DHT22;73746;47.466;8.992;2024-03-06T00:53:05;4.90;99.90
30678;DHT22;73746;47.466;8.992;2024-03-06T00:55:37;4.90;99.90
30678;DHT22;73746;47.466;8.992;2024-03-06T00:58:09;4.80;99.90
30678;DHT22;73746;47.466;8.992;2024-03-06T01:00:41;4.70;99.90
30678;DHT22;73746;47.466;8.992;2024-03-06T01:03:13;4.70;99.90
30678;DHT22;73746;47.466;8.992;2024-03-06T01:08:27;4.70;99.90
30678;DHT22;73746;47.466;8.992;2024-03-06T01:11:07;4.70;99.90
30678;DHT22;73746;47.466;8.992;2024-03-06T01:13:38;4.50;99.90
30678;DHT22;73746;47.466;8.992;2024-03-06T01:16:10;4.30;99.90
30678;DHT22;73746;47.466;8.992;2024-03-06T01:18:42;4.20;99.90
30678;DHT22;73746;47.466;8.992;2024-03-06T01:21:14;4.20;99.90
30678;DHT22;73746;47.466;8.992;2024-03-06T01:23:46;4.10;99.90
30678;DHT22;73746;47.466;8.992;2024-03-06T01:26:18;4.10;99.90
30678;DHT22;73746;47.466;8.992;2024-03-06T01:28:50;4.10;99.90
30678;DHT22;73746;47.466;8.992;2024-03-06T01:31:22;4.20;99.90
30678;DHT22;73746;47.466;8.992;2024-03-06T01:33:54;4.10;99.90
30678;DHT22;73746;47.466;8.992;2024-03-06T01:36:26;4.00;99.90
30678;DHT22;73746;47.466;8.992;2024-03-06T01:38:57;4.00;99.90
30678;DHT22;73746;47.466;8.992;2024-03-06T01:41:29;4.10;99.90
30678;DHT22;73746;47.466;8.992;2024-03-06T01:44:02;4.20;99.90
30678;DHT22;73746;47.466;8.992;2024-03-06T01:46:34;4.20;99.90
30678;DHT22;73746;47.466;8.992;2024-03-06T01:49:06;4.20;99.90
30678;DHT22;73746;47.466;8.992;2024-03-06T01:51:39;4.20;99.90
30678;DHT22;73746;47.466;8.992;2024-03-06T01:54:12;4.40;99.90
30678;DHT22;73746;47.466;8.992;2024-03-06T01:56:46;4.40;99.90
30678;DHT22;73746;47.466;8.992;2024-03-06T01:59:21;4.40;99.90
30678;DHT22;73746;47.466;8.992;2024-03-06T02:02:13;4.30;99.90
30678;DHT22;73746;47.466;8.992;2024-03-06T02:04:45;4.40;99.90
30678;DHT22;73746;47.466;8.992;2024-03-06T02:07:17;4.40;99.90
30678;DHT22;73746;47.466;8.992;2024-03-06T02:09:49;4.30;99.90
30678;DHT22;73746;47.466;8.992;2024-03-06T02:12:21;4.30;99.90
30678;DHT22;73746;47.466;8.992;2024-03-06T02:14:53;4.30;99.90
30678;DHT22;73746;47.466;8.992;2024-03-06T02:17:25;4.30;99.90
30678;DHT22;73746;47.466;8.992;2024-03-06T02:19:58;4.30;99.90
30678;DHT22;73746;47.466;8.992;2024-03-06T02:22:30;4.20;99.90
30678;DHT22;73746;47.466;8.992;2024-03-06T02:25:07;4.20;99.90
30678;DHT22;73746;47.466;8.992;2024-03-06T02:27:39;4.10;99.90
30678;DHT22;73746;47.466;8.992;2024-03-06T02:30:12;4.00;99.90
30678;DHT22;73746;47.466;8.992;2024-03-06T02:32:44;4.00;99.90
30678;DHT22;73746;47.466;8.992;2024-03-06T02:35:16;4.00;99.90
30678;DHT22;73746;47.466;8.992;2024-03-06T02:37:48;4.00;99.90
30678;DHT22;73746;47.466;8.992;2024-03-06T02:40:20;3.90;99.90
30678;DHT22;73746;47.466;8.992;2024-03-06T02:42:52;3.90;99.90
30678;DHT22;73746;47.466;8.992;2024-03-06T02:45:23;3.90;99.90
30678;DHT22;73746;47.466;8.992;2024-03-06T02:47:55;4.00;99.90
30678;DHT22;73746;47.466;8.992;2024-03-06T02:50:27;4.00;99.90
30678;DHT22;73746;47.466;8.992;2024-03-06T02:52:59;3.90;99.90
30678;DHT22;73746;47.466;8.992;2024-03-06T02:55:31;3.90;99.90
30678;DHT22;73746;47.466;8.992;2024-03-06T02:58:03;3.90;99.90
30678;DHT22;73746;47.466;8.992;2024-03-06T03:00:35;3.90;99.90
30678;DHT22;73746;47.466;8.992;2024-03-06T03:03:07;3.90;99.90
30678;DHT22;73746;47.466;8.992;2024-03-06T03:05:39;3.90;99.90
30678;DHT22;73746;47.466;8.992;2024-03-06T03:08:11;3.90;99.90
30678;DHT22;73746;47.466;8.992;2024-03-06T03:10:42;3.90;99.90
30678;DHT22;73746;47.466;8.992;2024-03-06T03:15:57;4.00;99.90
30678;DHT22;73746;47.466;8.992;2024-03-06T03:18:29;4.00;99.90
30678;DHT22;73746;47.466;8.992;2024-03-06T03:21:02;4.00;99.90
30678;DHT22;73746;47.466;8.992;2024-03-06T03:23:33;3.90;99.90
30678;DHT22;73746;47.466;8.992;2024-03-06T03:26:07;3.90;99.90
30678;DHT22;73746;47.466;8.992;2024-03-06T03:28:41;3.90;99.90
30678;DHT22;73746;47.466;8.992;2024-03-06T03:31:13;3.90;99.90
30678;DHT22;73746;47.466;8.992;2024-03-06T03:33:45;4.00;99.90
30678;DHT22;73746;47.466;8.992;2024-03-06T03:36:16;4.00;99.90
30678;DHT22;73746;47.466;8.992;2024-03-06T03:38:48;4.00;99.90
30678;DHT22;73746;47.466;8.992;2024-03-06T03:41:20;4.10;99.90
30678;DHT22;73746;47.466;8.992;2024-03-06T03:43:51;4.10;99.90
30678;DHT22;73746;47.466;8.992;2024-03-06T03:46:23;4.10;99.90
30678;DHT22;73746;47.466;8.992;2024-03-06T03:48:55;4.10;99.90
30678;DHT22;73746;47.466;8.992;2024-03-06T03:51:27;4.10;99.90
30678;DHT22;73746;47.466;8.992;2024-03-06T03:53:59;4.10;99.90
30678;DHT22;73746;47.466;8.992;2024-03-06T03:56:30;4.20;99.90
30678;DHT22;73746;47.466;8.992;2024-03-06T03:59:03;4.20;99.90
30678;DHT22;73746;47.466;8.992;2024-03-06T04:01:34;4.10;99.90
30678;DHT22;73746;47.466;8.992;2024-03-06T04:04:06;4.10;99.90
30678;DHT22;73746;47.466;8.992;2024-03-06T04:06:38;4.10;99.90
30678;DHT22;73746;47.466;8.992;2024-03-06T04:09:10;4.10;99.90
30678;DHT22;73746;47.466;8.992;2024-03-06T04:11:41;4.00;99.90
30678;DHT22;73746;47.466;8.992;2024-03-06T04:14:13;4.00;99.90
30678;DHT22;73746;47.466;8.992;2024-03-06T04:16:46;4.00;99.90
30678;DHT22;73746;47.466;8.992;2024-03-06T04:19:18;4.00;99.90
30678;DHT22;73746;47.466;8.992;2024-03-06T04:21:50;4.10;99.90
30678;DHT22;73746;47.466;8.992;2024-03-06T04:24:22;4.10;99.90
30678;DHT22;73746;47.466;8.992;2024-03-06T04:26:54;4.10;99.90
30678;DHT22;73746;47.466;8.992;2024-03-06T04:29:25;4.10;99.90
30678;DHT22;73746;47.466;8.992;2024-03-06T04:31:57;4.10;99.90
30678;DHT22;73746;47.466;8.992;2024-03-06T04:34:29;4.10;99.90
30678;DHT22;73746;47.466;8.992;2024-03-06T04:37:01;4.10;99.90
30678;DHT22;73746;47.466;8.992;2024-03-06T04:39:33;4.10;99.90
30678;DHT22;73746;47.466;8.992;2024-03-06T04:42:05;4.10;99.90
30678;DHT22;73746;47.466;8.992;2024-03-06T04:44:37;4.10;99.90
30678;DHT22;73746;47.466;8.992;2024-03-06T04:47:09;4.10;99.90
30678;DHT22;73746;47.466;8.992;2024-03-06T04:49:41;4.10;99.90
30678;DHT22;73746;47.466;8.992;2024-03-06T04:52:13;4.10;99.90
30678;DHT22;73746;47.466;8.992;2024-03-06T04:54:45;4.00;99.90
30678;DHT22;73746;47.466;8.992;2024-03-06T04:57:16;4.10;99.90
30678;DHT22;73746;47.466;8.992;2024-03-06T04:59:48;4.10;99.90
30678;DHT22;73746;47.466;8.992;2024-03-06T05:02:20;4.00;99.90
30678;DHT22;73746;47.466;8.992;2024-03-06T05:04:52;4.00;99.90
30678;DHT22;73746;47.466;8.992;2024-03-06T05:07:41;4.00;99.90
30678;DHT22;73746;47.466;8.992;2024-03-06T05:10:31;4.00;99.90
30678;DHT22;73746;47.466;8.992;2024-03-06T05:13:22;4.00;99.90
30678;DHT22;73746;47.466;8.992;2024-03-06T05:16:10;3.90;99.90
30678;DHT22;73746;47.466;8.992;2024-03-06T05:18:59;3.80;99.90
30678;DHT22;73746;47.466;8.992;2024-03-06T05:21:52;3.80;99.90
30678;DHT22;73746;47.466;8.992;2024-03-06T05:24:42;3.90;99.90
30678;DHT22;73746;47.466;8.992;2024-03-06T05:27:32;3.90;99.90
30678;DHT22;73746;47.466;8.992;2024-03-06T05:30:21;3.90;99.90
30678;DHT22;73746;47.466;8.992;2024-03-06T05:33:10;3.90;99.90
30678;DHT22;73746;47.466;8.992;2024-03-06T05:36:00;3.90;99.90
30678;DHT22;73746;47.466;8.992;2024-03-06T05:38:49;3.90;99.90
30678;DHT22;73746;47.466;8.992;2024-03-06T05:41:39;3.80;99.90
30678;DHT22;73746;47.466;8.992;2024-03-06T05:44:29;3.80;99.90
30678;DHT22;73746;47.466;8.992;2024-03-06T05:47:18;3.70;99.90
30678;DHT22;73746;47.466;8.992;2024-03-06T05:50:09;3.70;99.90
30678;DHT22;73746;47.466;8.992;2024-03-06T05:52:59;3.70;99.90
30678;DHT22;73746;47.466;8.992;2024-03-06T05:55:48;3.70;99.90
30678;DHT22;73746;47.466;8.992;2024-03-06T05:58:38;3.80;99.90
30678;DHT22;73746;47.466;8.992;2024-03-06T06:01:10;3.80;99.90
30678;DHT22;73746;47.466;8.992;2024-03-06T06:03:42;3.80;99.90
30678;DHT22;73746;47.466;8.992;2024-03-06T06:06:15;3.80;99.90
30678;DHT22;73746;47.466;8.992;2024-03-06T06:08:47;3.80;99.90
30678;DHT22;73746;47.466;8.992;2024-03-06T06:14:01;3.70;99.90
30678;DHT22;73746;47.466;8.992;2024-03-06T06:16:37;3.70;99.90
30678;DHT22;73746;47.466;8.992;2024-03-06T06:19:09;3.70;99.90
30678;DHT22;73746;47.466;8.992;2024-03-06T06:21:40;3.80;99.90
30678;DHT22;73746;47.466;8.992;2024-03-06T06:24:12;3.90;99.90
30678;DHT22;73746;47.466;8.992;2024-03-06T06:26:44;3.90;99.90
30678;DHT22;73746;47.466;8.992;2024-03-06T06:29:16;3.90;99.90
30678;DHT22;73746;47.466;8.992;2024-03-06T06:31:47;3.90;99.90
30678;DHT22;73746;47.466;8.992;2024-03-06T06:34:19;3.80;99.90
30678;DHT22;73746;47.466;8.992;2024-03-06T06:36:51;3.80;99.90
30678;DHT22;73746;47.466;8.992;2024-03-06T06:39:26;3.80;99.90
30678;DHT22;73746;47.466;8.992;2024-03-06T06:41:58;3.80;99.90
30678;DHT22;73746;47.466;8.992;2024-03-06T06:44:29;3.90;99.90
30678;DHT22;73746;47.466;8.992;2024-03-06T06:47:01;3.90;99.90
30678;DHT22;73746;47.466;8.992;2024-03-06T06:49:33;3.80;99.90
30678;DHT22;73746;47.466;8.992;2024-03-06T06:52:05;3.80;99.90
30678;DHT22;73746;47.466;8.992;2024-03-06T06:54:37;3.70;99.90
30678;DHT22;73746;47.466;8.992;2024-03-06T06:57:28;3.70;99.90
30678;DHT22;73746;47.466;8.992;2024-03-06T07:00:00;3.70;99.90
30678;DHT22;73746;47.466;8.992;2024-03-06T07:02:32;3.80;99.90
30678;DHT22;73746;47.466;8.992;2024-03-06T07:05:04;3.80;99.90
30678;DHT22;73746;47.466;8.992;2024-03-06T07:07:36;3.80;99.90
30678;DHT22;73746;47.466;8.992;2024-03-06T07:10:09;3.80;99.90
30678;DHT22;73746;47.466;8.992;2024-03-06T07:12:41;3.90;99.90
30678;DHT22;73746;47.466;8.992;2024-03-06T07:15:13;3.90;99.90
30678;DHT22;73746;47.466;8.992;2024-03-06T07:17:45;3.80;99.90
30678;DHT22;73746;47.466;8.992;2024-03-06T07:20:17;3.80;99.90
30678;DHT22;73746;47.466;8.992;2024-03-06T07:23:07;3.80;99.90
30678;DHT22;73746;47.466;8.992;2024-03-06T07:25:39;3.80;99.90
30678;DHT22;73746;47.466;8.992;2024-03-06T07:28:11;3.90;99.90
30678;DHT22;73746;47.466;8.992;2024-03-06T07:30:43;3.90;99.90
30678;DHT22;73746;47.466;8.992;2024-03-06T07:33:15;3.90;99.90
30678;DHT22;73746;47.466;8.992;2024-03-06T07:35:47;4.00;99.90
30678;DHT22;73746;47.466;8.992;2024-03-06T07:38:18;4.00;99.90
30678;DHT22;73746;47.466;8.992;2024-03-06T07:40:51;4.10;99.90
30678;DHT22;73746;47.466;8.992;2024-03-06T07:43:23;4.00;99.90
30678;DHT22;73746;47.466;8.992;2024-03-06T07:45:55;4.00;99.90
30678;DHT22;73746;47.466;8.992;2024-03-06T07:48:27;4.00;99.90
30678;DHT22;73746;47.466;8.992;2024-03-06T07:50:59;4.00;99.90
30678;DHT22;73746;47.466;8.992;2024-03-06T07:53:30;4.00;99.90
30678;DHT22;73746;47.466;8.992;2024-03-06T07:56:04;4.00;99.90
30678;DHT22;73746;47.466;8.992;2024-03-06T07:58:35;4.00;99.90
30678;DHT22;73746;47.466;8.992;2024-03-06T08:01:07;4.10;99.90
30678;DHT22;73746;47.466;8.992;2024-03-06T08:03:40;4.10;99.90
30678;DHT22;73746;47.466;8.992;2024-03-06T08:06:13;4.20;99.90
30678;DHT22;73746;47.466;8.992;2024-03-06T08:08:46;4.30;99.90
30678;DHT22;73746;47.466;8.992;2024-03-06T08:11:18;4.30;99.90
30678;DHT22;73746;47.466;8.992;2024-03-06T08:13:56;4.30;99.90
30678;DHT22;73746;47.466;8.992;2024-03-06T08:19:13;4.20;99.90
30678;DHT22;73746;47.466;8.992;2024-03-06T08:21:44;4.30;99.90
30678;DHT22;73746;47.466;8.992;2024-03-06T08:24:16;4.30;99.90
30678;DHT22;73746;47.466;8.992;2024-03-06T08:26:48;4.40;99.90
30678;DHT22;73746;47.466;8.992;2024-03-06T08:29:20;4.40;99.90
30678;DHT22;73746;47.466;8.992;2024-03-06T08:31:52;4.40;99.90
30678;DHT22;73746;47.466;8.992;2024-03-06T08:34:24;4.40;99.90
30678;DHT22;73746;47.466;8.992;2024-03-06T08:36:55;4.40;99.90
30678;DHT22;73746;47.466;8.992;2024-03-06T08:39:27;4.40;99.90
30678;DHT22;73746;47.466;8.992;2024-03-06T08:41:59;4.30;99.90
30678;DHT22;73746;47.466;8.992;2024-03-06T08:44:32;4.40;99.90
30678;DHT22;73746;47.466;8.992;2024-03-06T08:47:05;4.40;99.90
30678;DHT22;73746;47.466;8.992;2024-03-06T08:49:38;4.40;99.90
30678;DHT22;73746;47.466;8.992;2024-03-06T08:52:09;4.40;99.90
30678;DHT22;73746;47.466;8.992;2024-03-06T08:54:41;4.40;99.90
30678;DHT22;73746;47.466;8.992;2024-03-06T08:57:19;4.50;99.90
30678;DHT22;73746;47.466;8.992;2024-03-06T08:59:51;4.50;99.90
30678;DHT22;73746;47.466;8.992;2024-03-06T09:02:25;4.60;99.90
30678;DHT22;73746;47.466;8.992;2024-03-06T09:04:57;4.60;99.90
30678;DHT22;73746;47.466;8.992;2024-03-06T09:07:29;4.60;99.90
30678;DHT22;73746;47.466;8.992;2024-03-06T09:10:03;4.60;99.90
30678;DHT22;73746;47.466;8.992;2024-03-06T09:12:36;4.60;99.90
30678;DHT22;73746;47.466;8.992;2024-03-06T09:15:09;4.50;99.90
30678;DHT22;73746;47.466;8.992;2024-03-06T09:17:42;4.50;99.90
30678;DHT22;73746;47.466;8.992;2024-03-06T09:20:15;4.60;99.90
30678;DHT22;73746;47.466;8.992;2024-03-06T09:22:47;4.60;99.90
30678;DHT22;73746;47.466;8.992;2024-03-06T09:25:19;4.50;99.90
30678;DHT22;73746;47.466;8.992;2024-03-06T09:27:51;4.60;99.90
30678;DHT22;73746;47.466;8.992;2024-03-06T09:30:24;4.50;99.90
30678;DHT22;73746;47.466;8.992;2024-03-06T09:32:56;4.50;99.90
30678;DHT22;73746;47.466;8.992;2024-03-06T09:35:28;4.50;99.90
30678;DHT22;73746;47.466;8.992;2024-03-06T09:38:00;4.40;99.90
30678;DHT22;73746;47.466;8.992;2024-03-06T09:40:32;4.40;99.90
30678;DHT22;73746;47.466;8.992;2024-03-06T09:43:04;4.30;99.90
30678;DHT22;73746;47.466;8.992;2024-03-06T09:45:37;4.40;99.90
30678;DHT22;73746;47.466;8.992;2024-03-06T09:48:28;4.40;99.90
30678;DHT22;73746;47.466;8.992;2024-03-06T09:51:05;4.40;99.90
30678;DHT22;73746;47.466;8.992;2024-03-06T09:53:36;4.40;99.90
30678;DHT22;73746;47.466;8.992;2024-03-06T09:56:09;4.40;99.90
30678;DHT22;73746;47.466;8.992;2024-03-06T09:58:41;4.40;99.90
30678;DHT22;73746;47.466;8.992;2024-03-06T10:01:14;4.40;99.90
30678;DHT22;73746;47.466;8.992;2024-03-06T10:03:46;4.50;99.90
30678;DHT22;73746;47.466;8.992;2024-03-06T10:06:18;4.60;99.90
30678;DHT22;73746;47.466;8.992;2024-03-06T10:08:51;4.60;99.90
30678;DHT22;73746;47.466;8.992;2024-03-06T10:11:23;4.60;99.90
30678;DHT22;73746;47.466;8.992;2024-03-06T10:13:55;4.70;99.90
30678;DHT22;73746;47.466;8.992;2024-03-06T10:16:55;4.80;99.90
30678;DHT22;73746;47.466;8.992;2024-03-06T10:19:28;4.80;99.90
30678;DHT22;73746;47.466;8.992;2024-03-06T10:22:02;4.90;99.90
30678;DHT22;73746;47.466;8.992;2024-03-06T10:24:37;4.90;99.90
30678;DHT22;73746;47.466;8.992;2024-03-06T10:27:14;5.00;99.90
30678;DHT22;73746;47.466;8.992;2024-03-06T10:29:44;5.00;99.90
30678;DHT22;73746;47.466;8.992;2024-03-06T10:32:18;5.00;99.90
30678;DHT22;73746;47.466;8.992;2024-03-06T10:34:50;5.00;99.90
30678;DHT22;73746;47.466;8.992;2024-03-06T10:37:23;5.00;99.90
30678;DHT22;73746;47.466;8.992;2024-03-06T10:39:57;5.10;99.90
30678;DHT22;73746;47.466;8.992;2024-03-06T10:42:31;5.00;99.90
30678;DHT22;73746;47.466;8.992;2024-03-06T10:45:06;5.00;99.90
30678;DHT22;73746;47.466;8.992;2024-03-06T10:47:40;5.00;99.90
30678;DHT22;73746;47.466;8.992;2024-03-06T10:50:12;5.00;99.90
30678;DHT22;73746;47.466;8.992;2024-03-06T10:52:47;4.90;99.90
30678;DHT22;73746;47.466;8.992;2024-03-06T10:55:21;4.90;99.90
30678;DHT22;73746;47.466;8.992;2024-03-06T10:57:54;4.90;99.90
30678;DHT22;73746;47.466;8.992;2024-03-06T11:00:28;5.00;99.90
30678;DHT22;73746;47.466;8.992;2024-03-06T11:03:01;5.00;99.90
30678;DHT22;73746;47.466;8.992;2024-03-06T11:05:35;5.00;99.90
30678;DHT22;73746;47.466;8.992;2024-03-06T11:08:10;5.00;99.90
30678;DHT22;73746;47.466;8.992;2024-03-06T11:10:43;5.00;99.90
30678;DHT22;73746;47.466;8.992;2024-03-06T11:13:25;5.00;99.90
30678;DHT22;73746;47.466;8.992;2024-03-06T11:15:59;5.00;99.90
30678;DHT22;73746;47.466;8.992;2024-03-06T11:18:44;5.10;99.90
30678;DHT22;73746;47.466;8.992;2024-03-06T11:21:30;5.10;99.90
30678;DHT22;73746;47.466;8.992;2024-03-06T11:24:15;5.10;99.90
30678;DHT22;73746;47.466;8.992;2024-03-06T11:26:49;5.10;99.90
30678;DHT22;73746;47.466;8.992;2024-03-06T11:29:21;5.00;99.90
30678;DHT22;73746;47.466;8.992;2024-03-06T11:37:45;4.90;99.90
30678;DHT22;73746;47.466;8.992;2024-03-06T11:40:13;5.00;99.90
30678;DHT22;73746;47.466;8.992;2024-03-06T11:42:46;5.00;99.90
30678;DHT22;73746;47.466;8.992;2024-03-06T11:45:20;4.90;99.90
30678;DHT22;73746;47.466;8.992;2024-03-06T11:48:01;4.90;99.90
30678;DHT22;73746;47.466;8.992;2024-03-06T11:50:33;4.90;99.90
30678;DHT22;73746;47.466;8.992;2024-03-06T11:53:06;4.90;99.90
30678;DHT22;73746;47.466;8.992;2024-03-06T11:55:40;4.90;99.90
30678;DHT22;73746;47.466;8.992;2024-03-06T11:58:11;4.90;99.90
30678;DHT22;73746;47.466;8.992;2024-03-06T12:00:43;4.80;99.90
30678;DHT22;73746;47.466;8.992;2024-03-06T12:03:17;4.90;99.90
30678;DHT22;73746;47.466;8.992;2024-03-06T12:05:51;4.90;99.90
30678;DHT22;73746;47.466;8.992;2024-03-06T12:08:23;4.90;99.90
30678;DHT22;73746;47.466;8.992;2024-03-06T12:11:13;5.00;99.90
30678;DHT22;73746;47.466;8.992;2024-03-06T12:13:46;5.00;99.90
30678;DHT22;73746;47.466;8.992;2024-03-06T12:16:19;5.00;99.90
30678;DHT22;73746;47.466;8.992;2024-03-06T12:18:56;5.10;99.90
30678;DHT22;73746;47.466;8.992;2024-03-06T12:21:32;5.20;99.90
30678;DHT22;73746;47.466;8.992;2024-03-06T12:24:06;5.30;99.90
30678;DHT22;73746;47.466;8.992;2024-03-06T12:26:38;5.20;99.90
30678;DHT22;73746;47.466;8.992;2024-03-06T12:31:52;5.20;99.90
30678;DHT22;73746;47.466;8.992;2024-03-06T12:37:10;5.00;99.90
30678;DHT22;73746;47.466;8.992;2024-03-06T12:41:23;5.10;99.90
30678;DHT22;73746;47.466;8.992;2024-03-06T12:43:57;5.10;99.90
30678;DHT22;73746;47.466;8.992;2024-03-06T12:46:29;5.00;99.90
30678;DHT22;73746;47.466;8.992;2024-03-06T12:49:01;5.00;99.90
30678;DHT22;73746;47.466;8.992;2024-03-06T12:51:33;5.00;99.90
30678;DHT22;73746;47.466;8.992;2024-03-06T12:54:04;5.00;99.90
30678;DHT22;73746;47.466;8.992;2024-03-06T12:56:36;5.00;99.90
30678;DHT22;73746;47.466;8.992;2024-03-06T12:59:08;4.90;99.90
30678;DHT22;73746;47.466;8.992;2024-03-06T13:01:41;4.90;99.90
30678;DHT22;73746;47.466;8.992;2024-03-06T13:06:44;4.90;99.90
30678;DHT22;73746;47.466;8.992;2024-03-06T13:09:35;4.80;99.90
30678;DHT22;73746;47.466;8.992;2024-03-06T13:12:08;4.90;99.90
30678;DHT22;73746;47.466;8.992;2024-03-06T13:14:40;5.00;99.90
30678;DHT22;73746;47.466;8.992;2024-03-06T13:17:12;5.10;99.90
30678;DHT22;73746;47.466;8.992;2024-03-06T13:19:44;5.10;99.90
30678;DHT22;73746;47.466;8.992;2024-03-06T13:22:16;5.00;99.90
30678;DHT22;73746;47.466;8.992;2024-03-06T13:24:47;5.10;99.90
30678;DHT22;73746;47.466;8.992;2024-03-06T13:27:20;5.00;99.90
30678;DHT22;73746;47.466;8.992;2024-03-06T13:29:52;5.00;99.90
30678;DHT22;73746;47.466;8.992;2024-03-06T13:33:47;5.10;99.90
30678;DHT22;73746;47.466;8.992;2024-03-06T13:36:19;5.00;99.90
30678;DHT22;73746;47.466;8.992;2024-03-06T13:38:52;5.00;99.90
30678;DHT22;73746;47.466;8.992;2024-03-06T13:41:24;4.90;99.90
30678;DHT22;73746;47.466;8.992;2024-03-06T13:43:57;4.90;99.90
30678;DHT22;73746;47.466;8.992;2024-03-06T13:46:30;5.00;99.90
30678;DHT22;73746;47.466;8.992;2024-03-06T13:49:06;5.00;99.90
30678;DHT22;73746;47.466;8.992;2024-03-06T13:54:21;5.10;99.90
30678;DHT22;73746;47.466;8.992;2024-03-06T13:56:53;4.90;99.90
30678;DHT22;73746;47.466;8.992;2024-03-06T13:59:27;4.80;99.90
30678;DHT22;73746;47.466;8.992;2024-03-06T14:01:58;4.90;99.90
30678;DHT22;73746;47.466;8.992;2024-03-06T14:04:30;4.90;99.90
30678;DHT22;73746;47.466;8.992;2024-03-06T14:07:04;5.00;99.90
30678;DHT22;73746;47.466;8.992;2024-03-06T14:09:37;5.00;99.90
30678;DHT22;73746;47.466;8.992;2024-03-06T14:12:10;4.90;99.90
30678;DHT22;73746;47.466;8.992;2024-03-06T14:14:41;4.90;99.90
30678;DHT22;73746;47.466;8.992;2024-03-06T14:17:13;4.90;99.90
30678;DHT22;73746;47.466;8.992;2024-03-06T14:19:45;4.90;99.90
30678;DHT22;73746;47.466;8.992;2024-03-06T14:22:17;4.90;99.90
30678;DHT22;73746;47.466;8.992;2024-03-06T14:24:49;4.90;99.90
30678;DHT22;73746;47.466;8.992;2024-03-06T14:27:21;5.00;99.90
30678;DHT22;73746;47.466;8.992;2024-03-06T14:29:53;4.90;99.90
30678;DHT22;73746;47.466;8.992;2024-03-06T14:32:25;4.80;99.90
30678;DHT22;73746;47.466;8.992;2024-03-06T14:34:56;4.80;99.90
30678;DHT22;73746;47.466;8.992;2024-03-06T14:37:28;4.80;99.90
30678;DHT22;73746;47.466;8.992;2024-03-06T14:40:00;4.90;99.90
30678;DHT22;73746;47.466;8.992;2024-03-06T14:42:33;4.90;99.90
30678;DHT22;73746;47.466;8.992;2024-03-06T14:45:07;4.90;99.90
30678;DHT22;73746;47.466;8.992;2024-03-06T14:47:40;4.80;99.90
30678;DHT22;73746;47.466;8.992;2024-03-06T14:50:12;4.80;99.90
30678;DHT22;73746;47.466;8.992;2024-03-06T14:52:44;4.80;99.90
30678;DHT22;73746;47.466;8.992;2024-03-06T14:55:17;4.80;99.90
30678;DHT22;73746;47.466;8.992;2024-03-06T14:57:48;4.90;99.90
30678;DHT22;73746;47.466;8.992;2024-03-06T15:00:20;4.90;99.90
30678;DHT22;73746;47.466;8.992;2024-03-06T15:05:37;4.80;99.90
30678;DHT22;73746;47.466;8.992;2024-03-06T15:08:09;4.80;99.90
30678;DHT22;73746;47.466;8.992;2024-03-06T15:10:41;4.80;99.90
30678;DHT22;73746;47.466;8.992;2024-03-06T15:13:13;4.70;99.90
30678;DHT22;73746;47.466;8.992;2024-03-06T15:15:46;4.70;99.90
30678;DHT22;73746;47.466;8.992;2024-03-06T15:18:18;4.70;99.90
30678;DHT22;73746;47.466;8.992;2024-03-06T15:20:51;4.80;99.90
30678;DHT22;73746;47.466;8.992;2024-03-06T15:23:23;4.70;99.90
30678;DHT22;73746;47.466;8.992;2024-03-06T15:25:55;4.70;99.90
30678;DHT22;73746;47.466;8.992;2024-03-06T15:28:27;4.70;99.90
30678;DHT22;73746;47.466;8.992;2024-03-06T15:30:58;4.80;99.90
30678;DHT22;73746;47.466;8.992;2024-03-06T15:33:32;4.80;99.90
30678;DHT22;73746;47.466;8.992;2024-03-06T15:36:04;4.80;99.90
30678;DHT22;73746;47.466;8.992;2024-03-06T15:38:36;4.80;99.90
30678;DHT22;73746;47.466;8.992;2024-03-06T15:41:27;4.80;99.90
30678;DHT22;73746;47.466;8.992;2024-03-06T15:43:59;4.80;99.90
30678;DHT22;73746;47.466;8.992;2024-03-06T15:46:49;4.80;99.90
30678;DHT22;73746;47.466;8.992;2024-03-06T15:49:24;4.70;99.90
30678;DHT22;73746;47.466;8.992;2024-03-06T15:51:55;4.70;99.90
30678;DHT22;73746;47.466;8.992;2024-03-06T15:54:27;4.70;99.90
30678;DHT22;73746;47.466;8.992;2024-03-06T15:56:59;4.70;99.90
30678;DHT22;73746;47.466;8.992;2024-03-06T15:59:34;4.60;99.90
30678;DHT22;73746;47.466;8.992;2024-03-06T16:02:05;4.60;99.90
30678;DHT22;73746;47.466;8.992;2024-03-06T16:04:38;4.60;99.90
30678;DHT22;73746;47.466;8.992;2024-03-06T16:07:10;4.60;99.90
30678;DHT22;73746;47.466;8.992;2024-03-06T16:09:42;4.50;99.90
30678;DHT22;73746;47.466;8.992;2024-03-06T16:12:14;4.50;99.90
30678;DHT22;73746;47.466;8.992;2024-03-06T16:14:46;4.50;99.90
30678;DHT22;73746;47.466;8.992;2024-03-06T16:17:18;4.50;99.90
30678;DHT22;73746;47.466;8.992;2024-03-06T16:19:50;4.50;99.90
30678;DHT22;73746;47.466;8.992;2024-03-06T16:22:22;4.60;99.90
30678;DHT22;73746;47.466;8.992;2024-03-06T16:24:54;4.60;99.90
30678;DHT22;73746;47.466;8.992;2024-03-06T16:27:26;4.50;99.90
30678;DHT22;73746;47.466;8.992;2024-03-06T16:29:57;4.40;99.90
30678;DHT22;73746;47.466;8.992;2024-03-06T16:32:29;4.40;99.90
30678;DHT22;73746;47.466;8.992;2024-03-06T16:35:01;4.60;99.90
30678;DHT22;73746;47.466;8.992;2024-03-06T16:37:35;4.50;99.90
30678;DHT22;73746;47.466;8.992;2024-03-06T16:40:09;4.50;99.90
30678;DHT22;73746;47.466;8.992;2024-03-06T16:42:42;4.40;99.90
30678;DHT22;73746;47.466;8.992;2024-03-06T16:45:14;4.30;99.90
30678;DHT22;73746;47.466;8.992;2024-03-06T16:47:46;4.30;99.90
30678;DHT22;73746;47.466;8.992;2024-03-06T16:50:18;4.20;99.90
30678;DHT22;73746;47.466;8.992;2024-03-06T16:52:51;4.20;99.90
30678;DHT22;73746;47.466;8.992;2024-03-06T16:55:22;4.20;99.90
30678;DHT22;73746;47.466;8.992;2024-03-06T16:57:54;4.20;99.90
30678;DHT22;73746;47.466;8.992;2024-03-06T17:00:26;4.30;99.90
30678;DHT22;73746;47.466;8.992;2024-03-06T17:02:59;4.30;99.90
30678;DHT22;73746;47.466;8.992;2024-03-06T17:05:30;4.30;99.90